sensor_id;sensor_type;location;lat;lon;timestamp;P1;durP1;ratioP1;P2;durP2;ratioP2
3211;SDS011;1618;47.056;15.472;2023-06-22T00:00:18;4.70;;;4.23;;
3211;SDS011;1618;47.056;15.472;2023-06-22T00:02:51;5.20;;;4.80;;
3211;SDS011;1618;47.056;15.472;2023-06-22T00:05:18;4.73;;;4.43;;
3211;SDS011;1618;47.056;15.472;2023-06-22T00:07:46;4.83;;;4.53;;
3211;SDS011;1618;47.056;15.472;2023-06-22T00:10:14;6.03;;;5.60;;
3211;SDS011;1618;47.056;15.472;2023-06-22T00:12:41;5.57;;;5.07;;
3211;SDS011;1618;47.056;15.472;2023-06-22T00:15:09;5.77;;;5.27;;
3211;SDS011;1618;47.056;15.472;2023-06-22T00:17:37;6.17;;;5.67;;
3211;SDS011;1618;47.056;15.472;2023-06-22T00:20:05;5.43;;;5.03;;
3211;SDS011;1618;47.056;15.472;2023-06-22T00:22:33;6.50;;;6.00;;
3211;SDS011;1618;47.056;15.472;2023-06-22T00:25:04;5.67;;;5.00;;
3211;SDS011;1618;47.056;15.472;2023-06-22T00:27:33;5.53;;;5.10;;
3211;SDS011;1618;47.056;15.472;2023-06-22T00:30:01;5.27;;;4.87;;
3211;SDS011;1618;47.056;15.472;2023-06-22T00:32:30;5.67;;;5.27;;
3211;SDS011;1618;47.056;15.472;2023-06-22T00:34:59;5.20;;;4.83;;
3211;SDS011;1618;47.056;15.472;2023-06-22T00:37:26;5.33;;;4.83;;
3211;SDS011;1618;47.056;15.472;2023-06-22T00:39:55;4.70;;;4.40;;
3211;SDS011;1618;47.056;15.472;2023-06-22T00:42:22;5.60;;;5.10;;
3211;SDS011;1618;47.056;15.472;2023-06-22T00:44:52;4.70;;;4.30;;
3211;SDS011;1618;47.056;15.472;2023-06-22T00:47:21;10.30;;;5.53;;
3211;SDS011;1618;47.056;15.472;2023-06-22T00:49:49;4.60;;;4.20;;
3211;SDS011;1618;47.056;15.472;2023-06-22T00:52:18;5.47;;;4.03;;
3211;SDS011;1618;47.056;15.472;2023-06-22T00:54:47;5.10;;;4.70;;
3211;SDS011;1618;47.056;15.472;2023-06-22T00:57:15;5.40;;;4.90;;
3211;SDS011;1618;47.056;15.472;2023-06-22T00:59:45;4.83;;;4.43;;
3211;SDS011;1618;47.056;15.472;2023-06-22T01:02:14;5.90;;;5.47;;
3211;SDS011;1618;47.056;15.472;2023-06-22T01:04:41;4.93;;;4.63;;
3211;SDS011;1618;47.056;15.472;2023-06-22T01:07:10;4.87;;;4.57;;
3211;SDS011;1618;47.056;15.472;2023-06-22T01:09:44;5.00;;;4.60;;
3211;SDS011;1618;47.056;15.472;2023-06-22T01:12:13;6.10;;;5.07;;
3211;SDS011;1618;47.056;15.472;2023-06-22T01:14:43;4.80;;;4.50;;
3211;SDS011;1618;47.056;15.472;2023-06-22T01:17:15;4.97;;;4.67;;
3211;SDS011;1618;47.056;15.472;2023-06-22T01:19:44;5.90;;;5.50;;
3211;SDS011;1618;47.056;15.472;2023-06-22T01:22:13;5.40;;;4.90;;
3211;SDS011;1618;47.056;15.472;2023-06-22T01:24:45;5.30;;;4.90;;
3211;SDS011;1618;47.056;15.472;2023-06-22T01:27:18;6.13;;;5.37;;
3211;SDS011;1618;47.056;15.472;2023-06-22T01:29:55;6.03;;;5.53;;
3211;SDS011;1618;47.056;15.472;2023-06-22T01:32:27;5.50;;;5.10;;
3211;SDS011;1618;47.056;15.472;2023-06-22T01:34:58;5.40;;;5.00;;
3211;SDS011;1618;47.056;15.472;2023-06-22T01:37:28;5.03;;;4.63;;
3211;SDS011;1618;47.056;15.472;2023-06-22T01:39:58;4.13;;;3.83;;
3211;SDS011;1618;47.056;15.472;2023-06-22T01:42:25;8.00;;;5.13;;
3211;SDS011;1618;47.056;15.472;2023-06-22T01:44:54;5.23;;;4.80;;
3211;SDS011;1618;47.056;15.472;2023-06-22T01:47:23;4.77;;;4.33;;
3211;SDS011;1618;47.056;15.472;2023-06-22T01:49:52;3.93;;;3.63;;
3211;SDS011;1618;47.056;15.472;2023-06-22T01:52:22;5.03;;;4.63;;
3211;SDS011;1618;47.056;15.472;2023-06-22T01:54:49;7.87;;;4.93;;
3211;SDS011;1618;47.056;15.472;2023-06-22T01:57:16;4.90;;;4.50;;
3211;SDS011;1618;47.056;15.472;2023-06-22T01:59:46;4.10;;;3.80;;
3211;SDS011;1618;47.056;15.472;2023-06-22T02:02:18;5.10;;;4.70;;
3211;SDS011;1618;47.056;15.472;2023-06-22T02:04:52;5.17;;;4.73;;
3211;SDS011;1618;47.056;15.472;2023-06-22T02:07:22;5.63;;;5.13;;
3211;SDS011;1618;47.056;15.472;2023-06-22T02:09:51;5.60;;;5.17;;
3211;SDS011;1618;47.056;15.472;2023-06-22T02:12:21;5.80;;;5.40;;
3211;SDS011;1618;47.056;15.472;2023-06-22T02:14:49;6.73;;;4.60;;
3211;SDS011;1618;47.056;15.472;2023-06-22T02:17:19;4.90;;;4.60;;
3211;SDS011;1618;47.056;15.472;2023-06-22T02:19:47;5.90;;;4.80;;
3211;SDS011;1618;47.056;15.472;2023-06-22T02:22:15;5.73;;;5.23;;
3211;SDS011;1618;47.056;15.472;2023-06-22T02:24:44;5.03;;;4.07;;
3211;SDS011;1618;47.056;15.472;2023-06-22T02:27:11;7.00;;;4.70;;
3211;SDS011;1618;47.056;15.472;2023-06-22T02:29:39;3.90;;;3.60;;
3211;SDS011;1618;47.056;15.472;2023-06-22T02:32:07;7.57;;;5.30;;
3211;SDS011;1618;47.056;15.472;2023-06-22T02:34:36;5.50;;;4.63;;
3211;SDS011;1618;47.056;15.472;2023-06-22T02:37:04;6.03;;;5.47;;
3211;SDS011;1618;47.056;15.472;2023-06-22T02:39:33;5.43;;;5.03;;
3211;SDS011;1618;47.056;15.472;2023-06-22T02:42:00;5.87;;;5.37;;
3211;SDS011;1618;47.056;15.472;2023-06-22T02:44:27;4.40;;;4.10;;
3211;SDS011;1618;47.056;15.472;2023-06-22T02:46:55;5.53;;;4.43;;
3211;SDS011;1618;47.056;15.472;2023-06-22T02:49:23;5.80;;;5.30;;
3211;SDS011;1618;47.056;15.472;2023-06-22T02:51:52;5.40;;;5.00;;
3211;SDS011;1618;47.056;15.472;2023-06-22T02:54:21;4.23;;;3.83;;
3211;SDS011;1618;47.056;15.472;2023-06-22T02:56:48;4.70;;;4.40;;
3211;SDS011;1618;47.056;15.472;2023-06-22T02:59:16;5.93;;;5.40;;
3211;SDS011;1618;47.056;15.472;2023-06-22T03:01:49;5.93;;;5.33;;
3211;SDS011;1618;47.056;15.472;2023-06-22T03:04:17;7.23;;;5.73;;
3211;SDS011;1618;47.056;15.472;2023-06-22T03:06:46;5.50;;;5.10;;
3211;SDS011;1618;47.056;15.472;2023-06-22T03:09:18;5.70;;;5.03;;
3211;SDS011;1618;47.056;15.472;2023-06-22T03:11:45;6.80;;;6.20;;
3211;SDS011;1618;47.056;15.472;2023-06-22T03:14:14;6.97;;;5.10;;
3211;SDS011;1618;47.056;15.472;2023-06-22T03:16:41;6.43;;;5.83;;
3211;SDS011;1618;47.056;15.472;2023-06-22T03:19:09;6.57;;;5.57;;
3211;SDS011;1618;47.056;15.472;2023-06-22T03:21:39;5.73;;;5.30;;
3211;SDS011;1618;47.056;15.472;2023-06-22T03:24:06;6.37;;;5.77;;
3211;SDS011;1618;47.056;15.472;2023-06-22T03:26:36;6.87;;;6.27;;
3211;SDS011;1618;47.056;15.472;2023-06-22T03:29:04;10.00;;;6.90;;
3211;SDS011;1618;47.056;15.472;2023-06-22T03:31:33;6.13;;;5.63;;
3211;SDS011;1618;47.056;15.472;2023-06-22T03:34:00;6.23;;;5.83;;
3211;SDS011;1618;47.056;15.472;2023-06-22T03:36:27;5.33;;;4.93;;
3211;SDS011;1618;47.056;15.472;2023-06-22T03:38:55;5.20;;;4.80;;
3211;SDS011;1618;47.056;15.472;2023-06-22T03:41:23;5.23;;;4.90;;
3211;SDS011;1618;47.056;15.472;2023-06-22T03:43:57;6.07;;;5.57;;
3211;SDS011;1618;47.056;15.472;2023-06-22T03:46:24;5.50;;;5.00;;
3211;SDS011;1618;47.056;15.472;2023-06-22T03:48:52;6.20;;;5.63;;
3211;SDS011;1618;47.056;15.472;2023-06-22T03:51:20;5.67;;;5.20;;
3211;SDS011;1618;47.056;15.472;2023-06-22T03:53:48;5.90;;;5.47;;
3211;SDS011;1618;47.056;15.472;2023-06-22T03:56:15;5.93;;;5.53;;
3211;SDS011;1618;47.056;15.472;2023-06-22T03:58:46;5.40;;;5.00;;
3211;SDS011;1618;47.056;15.472;2023-06-22T04:01:16;7.63;;;6.40;;
3211;SDS011;1618;47.056;15.472;2023-06-22T04:03:44;10.83;;;6.97;;
3211;SDS011;1618;47.056;15.472;2023-06-22T04:06:14;6.70;;;5.70;;
3211;SDS011;1618;47.056;15.472;2023-06-22T04:08:41;6.03;;;5.63;;
3211;SDS011;1618;47.056;15.472;2023-06-22T04:11:09;6.03;;;5.60;;
3211;SDS011;1618;47.056;15.472;2023-06-22T04:13:36;6.80;;;6.30;;
3211;SDS011;1618;47.056;15.472;2023-06-22T04:16:04;7.73;;;7.20;;
3211;SDS011;1618;47.056;15.472;2023-06-22T04:18:33;7.77;;;6.87;;
3211;SDS011;1618;47.056;15.472;2023-06-22T04:21:02;7.10;;;6.53;;
3211;SDS011;1618;47.056;15.472;2023-06-22T04:23:30;7.00;;;6.50;;
3211;SDS011;1618;47.056;15.472;2023-06-22T04:25:58;6.80;;;6.30;;
3211;SDS011;1618;47.056;15.472;2023-06-22T04:28:26;6.10;;;5.70;;
3211;SDS011;1618;47.056;15.472;2023-06-22T04:30:54;6.73;;;6.33;;
3211;SDS011;1618;47.056;15.472;2023-06-22T04:33:23;6.47;;;6.07;;
3211;SDS011;1618;47.056;15.472;2023-06-22T04:35:53;8.87;;;7.83;;
3211;SDS011;1618;47.056;15.472;2023-06-22T04:38:22;7.90;;;7.20;;
3211;SDS011;1618;47.056;15.472;2023-06-22T04:40:49;7.50;;;7.00;;
3211;SDS011;1618;47.056;15.472;2023-06-22T04:43:19;8.80;;;8.20;;
3211;SDS011;1618;47.056;15.472;2023-06-22T04:45:47;7.90;;;7.40;;
3211;SDS011;1618;47.056;15.472;2023-06-22T04:48:17;7.60;;;7.10;;
3211;SDS011;1618;47.056;15.472;2023-06-22T04:50:45;9.40;;;8.67;;
3211;SDS011;1618;47.056;15.472;2023-06-22T04:53:14;9.07;;;8.20;;
3211;SDS011;1618;47.056;15.472;2023-06-22T04:55:42;7.37;;;6.97;;
3211;SDS011;1618;47.056;15.472;2023-06-22T04:58:11;7.40;;;6.90;;
3211;SDS011;1618;47.056;15.472;2023-06-22T05:00:38;8.50;;;7.90;;
3211;SDS011;1618;47.056;15.472;2023-06-22T05:03:07;9.37;;;8.63;;
3211;SDS011;1618;47.056;15.472;2023-06-22T05:05:36;8.17;;;7.67;;
3211;SDS011;1618;47.056;15.472;2023-06-22T05:08:03;9.00;;;8.40;;
3211;SDS011;1618;47.056;15.472;2023-06-22T05:10:35;8.93;;;8.23;;
3211;SDS011;1618;47.056;15.472;2023-06-22T05:13:02;8.93;;;8.43;;
3211;SDS011;1618;47.056;15.472;2023-06-22T05:15:29;9.10;;;8.47;;
3211;SDS011;1618;47.056;15.472;2023-06-22T05:18:04;9.30;;;8.50;;
3211;SDS011;1618;47.056;15.472;2023-06-22T05:20:31;10.37;;;9.47;;
3211;SDS011;1618;47.056;15.472;2023-06-22T05:23:01;9.90;;;9.20;;
3211;SDS011;1618;47.056;15.472;2023-06-22T05:25:36;10.20;;;9.50;;
3211;SDS011;1618;47.056;15.472;2023-06-22T05:28:03;11.90;;;10.87;;
3211;SDS011;1618;47.056;15.472;2023-06-22T05:30:37;11.30;;;10.50;;
3211;SDS011;1618;47.056;15.472;2023-06-22T05:33:05;12.13;;;11.23;;
3211;SDS011;1618;47.056;15.472;2023-06-22T05:35:33;13.13;;;12.13;;
3211;SDS011;1618;47.056;15.472;2023-06-22T05:38:01;16.30;;;15.23;;
3211;SDS011;1618;47.056;15.472;2023-06-22T05:40:29;12.70;;;12.00;;
3211;SDS011;1618;47.056;15.472;2023-06-22T05:43:03;14.10;;;13.30;;
3211;SDS011;1618;47.056;15.472;2023-06-22T05:45:31;14.50;;;13.70;;
3211;SDS011;1618;47.056;15.472;2023-06-22T05:48:00;14.50;;;13.60;;
3211;SDS011;1618;47.056;15.472;2023-06-22T05:50:32;16.23;;;15.07;;
3211;SDS011;1618;47.056;15.472;2023-06-22T05:53:00;14.90;;;14.00;;
3211;SDS011;1618;47.056;15.472;2023-06-22T05:55:28;14.70;;;13.80;;
3211;SDS011;1618;47.056;15.472;2023-06-22T05:57:57;16.00;;;14.75;;
3211;SDS011;1618;47.056;15.472;2023-06-22T06:00:28;19.53;;;18.33;;
3211;SDS011;1618;47.056;15.472;2023-06-22T06:02:56;18.13;;;16.93;;
3211;SDS011;1618;47.056;15.472;2023-06-22T06:05:28;19.07;;;17.97;;
3211;SDS011;1618;47.056;15.472;2023-06-22T06:07:56;18.60;;;17.43;;
3211;SDS011;1618;47.056;15.472;2023-06-22T06:10:24;18.87;;;17.57;;
3211;SDS011;1618;47.056;15.472;2023-06-22T06:12:51;20.43;;;19.10;;
3211;SDS011;1618;47.056;15.472;2023-06-22T06:15:19;17.53;;;16.53;;
3211;SDS011;1618;47.056;15.472;2023-06-22T06:17:51;21.00;;;19.80;;
3211;SDS011;1618;47.056;15.472;2023-06-22T06:20:20;22.63;;;21.20;;
3211;SDS011;1618;47.056;15.472;2023-06-22T06:22:48;21.33;;;19.97;;
3211;SDS011;1618;47.056;15.472;2023-06-22T06:25:17;23.30;;;21.80;;
3211;SDS011;1618;47.056;15.472;2023-06-22T06:27:48;23.13;;;21.73;;
3211;SDS011;1618;47.056;15.472;2023-06-22T06:30:17;23.77;;;22.30;;
3211;SDS011;1618;47.056;15.472;2023-06-22T06:32:45;23.20;;;21.80;;
3211;SDS011;1618;47.056;15.472;2023-06-22T06:35:14;23.87;;;22.47;;
3211;SDS011;1618;47.056;15.472;2023-06-22T06:37:43;22.53;;;21.13;;
3211;SDS011;1618;47.056;15.472;2023-06-22T06:40:12;24.03;;;22.20;;
3211;SDS011;1618;47.056;15.472;2023-06-22T06:42:41;21.63;;;20.33;;
3211;SDS011;1618;47.056;15.472;2023-06-22T06:45:12;23.27;;;21.83;;
3211;SDS011;1618;47.056;15.472;2023-06-22T06:47:40;25.97;;;23.87;;
3211;SDS011;1618;47.056;15.472;2023-06-22T06:50:08;26.10;;;24.50;;
3211;SDS011;1618;47.056;15.472;2023-06-22T06:52:37;24.33;;;22.53;;
3211;SDS011;1618;47.056;15.472;2023-06-22T06:55:05;26.63;;;24.87;;
3211;SDS011;1618;47.056;15.472;2023-06-22T06:57:35;23.37;;;21.97;;
3211;SDS011;1618;47.056;15.472;2023-06-22T07:00:03;26.27;;;24.47;;
3211;SDS011;1618;47.056;15.472;2023-06-22T07:02:35;28.30;;;26.00;;
3211;SDS011;1618;47.056;15.472;2023-06-22T07:05:02;29.47;;;27.47;;
3211;SDS011;1618;47.056;15.472;2023-06-22T07:07:31;27.20;;;25.50;;
3211;SDS011;1618;47.056;15.472;2023-06-22T07:10:01;29.40;;;27.50;;
3211;SDS011;1618;47.056;15.472;2023-06-22T07:12:30;27.97;;;25.90;;
3211;SDS011;1618;47.056;15.472;2023-06-22T07:15:00;25.80;;;24.20;;
3211;SDS011;1618;47.056;15.472;2023-06-22T07:17:29;27.27;;;25.47;;
3211;SDS011;1618;47.056;15.472;2023-06-22T07:19:57;26.87;;;24.93;;
3211;SDS011;1618;47.056;15.472;2023-06-22T07:22:24;24.37;;;22.67;;
3211;SDS011;1618;47.056;15.472;2023-06-22T07:24:52;24.53;;;22.73;;
3211;SDS011;1618;47.056;15.472;2023-06-22T07:27:22;24.83;;;23.17;;
3211;SDS011;1618;47.056;15.472;2023-06-22T07:29:50;26.97;;;25.27;;
3211;SDS011;1618;47.056;15.472;2023-06-22T07:32:17;26.73;;;24.83;;
3211;SDS011;1618;47.056;15.472;2023-06-22T07:34:44;28.97;;;26.97;;
3211;SDS011;1618;47.056;15.472;2023-06-22T07:37:12;28.57;;;26.60;;
3211;SDS011;1618;47.056;15.472;2023-06-22T07:39:40;28.20;;;26.33;;
3211;SDS011;1618;47.056;15.472;2023-06-22T07:42:08;28.87;;;26.70;;
3211;SDS011;1618;47.056;15.472;2023-06-22T07:44:38;27.50;;;25.70;;
3211;SDS011;1618;47.056;15.472;2023-06-22T07:47:05;27.53;;;25.63;;
3211;SDS011;1618;47.056;15.472;2023-06-22T07:49:33;27.90;;;26.00;;
3211;SDS011;1618;47.056;15.472;2023-06-22T07:52:01;29.30;;;26.90;;
3211;SDS011;1618;47.056;15.472;2023-06-22T07:54:29;30.20;;;27.93;;
3211;SDS011;1618;47.056;15.472;2023-06-22T07:56:56;29.80;;;27.80;;
3211;SDS011;1618;47.056;15.472;2023-06-22T07:59:25;30.17;;;27.97;;
3211;SDS011;1618;47.056;15.472;2023-06-22T08:01:56;29.43;;;27.43;;
3211;SDS011;1618;47.056;15.472;2023-06-22T08:04:23;30.50;;;28.10;;
3211;SDS011;1618;47.056;15.472;2023-06-22T08:06:53;31.30;;;29.10;;
3211;SDS011;1618;47.056;15.472;2023-06-22T08:09:21;29.80;;;27.80;;
3211;SDS011;1618;47.056;15.472;2023-06-22T08:11:50;32.20;;;29.87;;
3211;SDS011;1618;47.056;15.472;2023-06-22T08:14:18;31.03;;;28.83;;
3211;SDS011;1618;47.056;15.472;2023-06-22T08:16:45;32.13;;;29.53;;
3211;SDS011;1618;47.056;15.472;2023-06-22T08:19:15;32.50;;;30.10;;
3211;SDS011;1618;47.056;15.472;2023-06-22T08:21:44;32.37;;;30.07;;
3211;SDS011;1618;47.056;15.472;2023-06-22T08:24:13;33.60;;;31.30;;
3211;SDS011;1618;47.056;15.472;2023-06-22T08:26:45;34.93;;;32.33;;
3211;SDS011;1618;47.056;15.472;2023-06-22T08:29:14;35.33;;;32.77;;
3211;SDS011;1618;47.056;15.472;2023-06-22T08:31:42;34.90;;;32.30;;
3211;SDS011;1618;47.056;15.472;2023-06-22T08:34:11;34.33;;;32.00;;
3211;SDS011;1618;47.056;15.472;2023-06-22T08:36:40;33.10;;;30.60;;
3211;SDS011;1618;47.056;15.472;2023-06-22T08:39:11;33.50;;;30.90;;
3211;SDS011;1618;47.056;15.472;2023-06-22T08:41:39;34.30;;;31.83;;
3211;SDS011;1618;47.056;15.472;2023-06-22T08:44:06;33.00;;;30.60;;
3211;SDS011;1618;47.056;15.472;2023-06-22T08:46:36;32.60;;;30.20;;
3211;SDS011;1618;47.056;15.472;2023-06-22T08:49:05;32.10;;;29.70;;
3211;SDS011;1618;47.056;15.472;2023-06-22T08:51:32;33.57;;;31.00;;
3211;SDS011;1618;47.056;15.472;2023-06-22T08:54:01;32.53;;;30.10;;
3211;SDS011;1618;47.056;15.472;2023-06-22T08:56:28;31.43;;;29.03;;
3211;SDS011;1618;47.056;15.472;2023-06-22T08:58:56;31.97;;;29.23;;
3211;SDS011;1618;47.056;15.472;2023-06-22T09:01:24;31.77;;;29.43;;
3211;SDS011;1618;47.056;15.472;2023-06-22T09:03:52;32.13;;;29.67;;
3211;SDS011;1618;47.056;15.472;2023-06-22T09:06:26;32.13;;;29.73;;
3211;SDS011;1618;47.056;15.472;2023-06-22T09:08:57;32.77;;;30.33;;
3211;SDS011;1618;47.056;15.472;2023-06-22T09:11:27;32.30;;;29.83;;
3211;SDS011;1618;47.056;15.472;2023-06-22T09:13:54;33.60;;;31.10;;
3211;SDS011;1618;47.056;15.472;2023-06-22T09:16:24;34.77;;;32.00;;
3211;SDS011;1618;47.056;15.472;2023-06-22T09:18:51;35.30;;;32.50;;
3211;SDS011;1618;47.056;15.472;2023-06-22T09:21:20;34.73;;;32.13;;
3211;SDS011;1618;47.056;15.472;2023-06-22T09:23:49;34.97;;;32.17;;
3211;SDS011;1618;47.056;15.472;2023-06-22T09:26:18;34.77;;;32.07;;
3211;SDS011;1618;47.056;15.472;2023-06-22T09:28:48;34.83;;;32.10;;
3211;SDS011;1618;47.056;15.472;2023-06-22T09:31:16;34.57;;;31.83;;
3211;SDS011;1618;47.056;15.472;2023-06-22T09:33:50;35.30;;;32.60;;
3211;SDS011;1618;47.056;15.472;2023-06-22T09:36:23;35.90;;;33.10;;
3211;SDS011;1618;47.056;15.472;2023-06-22T09:38:51;35.70;;;32.70;;
3211;SDS011;1618;47.056;15.472;2023-06-22T09:41:23;35.10;;;32.40;;
3211;SDS011;1618;47.056;15.472;2023-06-22T09:43:51;35.33;;;32.70;;
3211;SDS011;1618;47.056;15.472;2023-06-22T09:46:19;32.83;;;30.20;;
3211;SDS011;1618;47.056;15.472;2023-06-22T09:48:51;32.60;;;29.77;;
3211;SDS011;1618;47.056;15.472;2023-06-22T09:51:18;35.00;;;32.20;;
3211;SDS011;1618;47.056;15.472;2023-06-22T09:53:47;34.57;;;31.67;;
3211;SDS011;1618;47.056;15.472;2023-06-22T09:56:15;36.70;;;33.70;;
3211;SDS011;1618;47.056;15.472;2023-06-22T09:58:43;35.93;;;33.03;;
3211;SDS011;1618;47.056;15.472;2023-06-22T10:01:12;35.03;;;32.23;;
3211;SDS011;1618;47.056;15.472;2023-06-22T10:03:41;36.33;;;33.43;;
3211;SDS011;1618;47.056;15.472;2023-06-22T10:06:09;35.23;;;32.47;;
3211;SDS011;1618;47.056;15.472;2023-06-22T10:08:37;36.10;;;33.17;;
3211;SDS011;1618;47.056;15.472;2023-06-22T10:11:06;35.40;;;32.30;;
3211;SDS011;1618;47.056;15.472;2023-06-22T10:13:34;33.97;;;31.20;;
3211;SDS011;1618;47.056;15.472;2023-06-22T10:16:01;35.37;;;32.40;;
3211;SDS011;1618;47.056;15.472;2023-06-22T10:18:32;36.00;;;33.10;;
3211;SDS011;1618;47.056;15.472;2023-06-22T10:20:59;33.77;;;31.00;;
3211;SDS011;1618;47.056;15.472;2023-06-22T10:23:27;34.57;;;31.67;;
3211;SDS011;1618;47.056;15.472;2023-06-22T10:25:55;33.90;;;31.10;;
3211;SDS011;1618;47.056;15.472;2023-06-22T10:28:24;36.10;;;33.00;;
3211;SDS011;1618;47.056;15.472;2023-06-22T10:30:51;35.73;;;32.70;;
3211;SDS011;1618;47.056;15.472;2023-06-22T10:33:20;36.90;;;33.90;;
3211;SDS011;1618;47.056;15.472;2023-06-22T10:35:49;37.33;;;34.23;;
3211;SDS011;1618;47.056;15.472;2023-06-22T10:38:17;36.97;;;34.00;;
3211;SDS011;1618;47.056;15.472;2023-06-22T10:40:45;38.33;;;35.33;;
3211;SDS011;1618;47.056;15.472;2023-06-22T10:43:12;37.13;;;34.00;;
3211;SDS011;1618;47.056;15.472;2023-06-22T10:45:42;38.53;;;35.23;;
3211;SDS011;1618;47.056;15.472;2023-06-22T10:48:10;38.03;;;35.03;;
3211;SDS011;1618;47.056;15.472;2023-06-22T10:50:39;37.70;;;34.60;;
3211;SDS011;1618;47.056;15.472;2023-06-22T10:53:09;41.10;;;37.90;;
3211;SDS011;1618;47.056;15.472;2023-06-22T10:55:37;38.83;;;35.50;;
3211;SDS011;1618;47.056;15.472;2023-06-22T10:58:05;39.53;;;36.33;;
3211;SDS011;1618;47.056;15.472;2023-06-22T11:00:34;39.90;;;36.57;;
3211;SDS011;1618;47.056;15.472;2023-06-22T11:03:01;39.37;;;36.17;;
3211;SDS011;1618;47.056;15.472;2023-06-22T11:05:28;38.53;;;35.30;;
3211;SDS011;1618;47.056;15.472;2023-06-22T11:07:55;39.90;;;36.57;;
3211;SDS011;1618;47.056;15.472;2023-06-22T11:10:24;36.27;;;33.40;;
3211;SDS011;1618;47.056;15.472;2023-06-22T11:12:52;38.83;;;35.63;;
3211;SDS011;1618;47.056;15.472;2023-06-22T11:15:20;42.63;;;39.30;;
3211;SDS011;1618;47.056;15.472;2023-06-22T11:17:48;41.10;;;37.80;;
3211;SDS011;1618;47.056;15.472;2023-06-22T11:20:15;39.07;;;35.97;;
3211;SDS011;1618;47.056;15.472;2023-06-22T11:22:42;40.50;;;37.20;;
3211;SDS011;1618;47.056;15.472;2023-06-22T11:25:10;40.07;;;36.87;;
3211;SDS011;1618;47.056;15.472;2023-06-22T11:27:40;40.10;;;36.80;;
3211;SDS011;1618;47.056;15.472;2023-06-22T11:30:08;39.00;;;35.90;;
3211;SDS011;1618;47.056;15.472;2023-06-22T11:32:35;40.10;;;36.93;;
3211;SDS011;1618;47.056;15.472;2023-06-22T11:35:02;40.00;;;36.80;;
3211;SDS011;1618;47.056;15.472;2023-06-22T11:37:30;39.53;;;36.43;;
3211;SDS011;1618;47.056;15.472;2023-06-22T11:39:57;41.00;;;37.80;;
3211;SDS011;1618;47.056;15.472;2023-06-22T11:42:27;39.90;;;36.70;;
3211;SDS011;1618;47.056;15.472;2023-06-22T11:44:59;40.08;;;36.97;;
3211;SDS011;1618;47.056;15.472;2023-06-22T11:47:27;42.10;;;38.90;;
3211;SDS011;1618;47.056;15.472;2023-06-22T11:49:57;43.10;;;39.80;;
3211;SDS011;1618;47.056;15.472;2023-06-22T11:52:30;41.20;;;38.00;;
3211;SDS011;1618;47.056;15.472;2023-06-22T11:54:58;42.92;;;39.45;;
3211;SDS011;1618;47.056;15.472;2023-06-22T11:57:29;42.10;;;38.80;;
3211;SDS011;1618;47.056;15.472;2023-06-22T11:59:59;41.55;;;38.25;;
3211;SDS011;1618;47.056;15.472;2023-06-22T12:02:27;43.03;;;39.72;;
3211;SDS011;1618;47.056;15.472;2023-06-22T12:04:55;44.25;;;40.85;;
3211;SDS011;1618;47.056;15.472;2023-06-22T12:07:23;42.10;;;38.90;;
3211;SDS011;1618;47.056;15.472;2023-06-22T12:09:50;42.33;;;38.92;;
3211;SDS011;1618;47.056;15.472;2023-06-22T12:12:18;41.88;;;38.58;;
3211;SDS011;1618;47.056;15.472;2023-06-22T12:14:52;39.83;;;36.72;;
3211;SDS011;1618;47.056;15.472;2023-06-22T12:17:22;42.85;;;39.55;;
3211;SDS011;1618;47.056;15.472;2023-06-22T12:19:52;42.97;;;39.67;;
3211;SDS011;1618;47.056;15.472;2023-06-22T12:22:20;42.65;;;39.25;;
3211;SDS011;1618;47.056;15.472;2023-06-22T12:24:48;42.65;;;39.25;;
3211;SDS011;1618;47.056;15.472;2023-06-22T12:27:18;43.30;;;39.90;;
3211;SDS011;1618;47.056;15.472;2023-06-22T12:29:45;42.55;;;39.25;;
3211;SDS011;1618;47.056;15.472;2023-06-22T12:32:13;41.13;;;37.97;;
3211;SDS011;1618;47.056;15.472;2023-06-22T12:34:43;40.90;;;37.70;;
3211;SDS011;1618;47.056;15.472;2023-06-22T12:37:13;43.65;;;40.25;;
3211;SDS011;1618;47.056;15.472;2023-06-22T12:39:43;45.30;;;41.78;;
3211;SDS011;1618;47.056;15.472;2023-06-22T12:42:12;43.70;;;40.28;;
3211;SDS011;1618;47.056;15.472;2023-06-22T12:44:41;41.15;;;37.75;;
3211;SDS011;1618;47.056;15.472;2023-06-22T12:47:12;40.40;;;37.10;;
3211;SDS011;1618;47.056;15.472;2023-06-22T12:49:40;41.40;;;37.95;;
3211;SDS011;1618;47.056;15.472;2023-06-22T12:52:15;39.85;;;36.65;;
3211;SDS011;1618;47.056;15.472;2023-06-22T12:54:44;40.15;;;36.95;;
3211;SDS011;1618;47.056;15.472;2023-06-22T12:57:11;39.60;;;36.40;;
3211;SDS011;1618;47.056;15.472;2023-06-22T12:59:39;40.35;;;36.90;;
3211;SDS011;1618;47.056;15.472;2023-06-22T13:02:09;41.15;;;37.75;;
3211;SDS011;1618;47.056;15.472;2023-06-22T13:04:37;41.10;;;37.53;;
3211;SDS011;1618;47.056;15.472;2023-06-22T13:07:05;40.70;;;37.20;;
3211;SDS011;1618;47.056;15.472;2023-06-22T13:09:35;39.00;;;35.70;;
3211;SDS011;1618;47.056;15.472;2023-06-22T13:12:03;39.72;;;36.33;;
3211;SDS011;1618;47.056;15.472;2023-06-22T13:14:31;39.55;;;36.15;;
3211;SDS011;1618;47.056;15.472;2023-06-22T13:16:59;40.35;;;36.85;;
3211;SDS011;1618;47.056;15.472;2023-06-22T13:19:27;39.97;;;36.58;;
3211;SDS011;1618;47.056;15.472;2023-06-22T13:21:58;40.10;;;36.70;;
3211;SDS011;1618;47.056;15.472;2023-06-22T13:24:28;41.20;;;37.60;;
3211;SDS011;1618;47.056;15.472;2023-06-22T13:26:58;41.28;;;37.67;;
3211;SDS011;1618;47.056;15.472;2023-06-22T13:29:26;42.63;;;39.03;;
3211;SDS011;1618;47.056;15.472;2023-06-22T13:31:55;40.90;;;37.35;;
3211;SDS011;1618;47.056;15.472;2023-06-22T13:34:22;41.08;;;37.58;;
3211;SDS011;1618;47.056;15.472;2023-06-22T13:36:52;40.42;;;37.03;;
3211;SDS011;1618;47.056;15.472;2023-06-22T13:39:24;41.30;;;37.80;;
3211;SDS011;1618;47.056;15.472;2023-06-22T13:41:51;41.30;;;37.70;;
3211;SDS011;1618;47.056;15.472;2023-06-22T13:44:21;40.50;;;37.00;;
3211;SDS011;1618;47.056;15.472;2023-06-22T13:46:48;41.73;;;38.03;;
3211;SDS011;1618;47.056;15.472;2023-06-22T13:49:16;41.37;;;37.90;;
3211;SDS011;1618;47.056;15.472;2023-06-22T13:51:44;40.77;;;37.27;;
3211;SDS011;1618;47.056;15.472;2023-06-22T13:54:14;41.67;;;38.13;;
3211;SDS011;1618;47.056;15.472;2023-06-22T13:56:42;41.83;;;38.17;;
3211;SDS011;1618;47.056;15.472;2023-06-22T13:59:12;42.47;;;38.83;;
3211;SDS011;1618;47.056;15.472;2023-06-22T14:01:42;41.13;;;37.63;;
3211;SDS011;1618;47.056;15.472;2023-06-22T14:04:11;40.00;;;36.50;;
3211;SDS011;1618;47.056;15.472;2023-06-22T14:06:39;40.23;;;36.73;;
3211;SDS011;1618;47.056;15.472;2023-06-22T14:09:12;41.70;;;38.10;;
3211;SDS011;1618;47.056;15.472;2023-06-22T14:11:39;41.47;;;37.87;;
3211;SDS011;1618;47.056;15.472;2023-06-22T14:14:06;41.87;;;38.17;;
3211;SDS011;1618;47.056;15.472;2023-06-22T14:16:36;43.73;;;39.53;;
3211;SDS011;1618;47.056;15.472;2023-06-22T14:19:09;41.83;;;37.80;;
3211;SDS011;1618;47.056;15.472;2023-06-22T14:21:38;41.43;;;37.83;;
3211;SDS011;1618;47.056;15.472;2023-06-22T14:24:07;41.20;;;37.70;;
3211;SDS011;1618;47.056;15.472;2023-06-22T14:26:34;43.00;;;39.30;;
3211;SDS011;1618;47.056;15.472;2023-06-22T14:29:03;41.67;;;37.97;;
3211;SDS011;1618;47.056;15.472;2023-06-22T14:31:31;41.83;;;38.13;;
3211;SDS011;1618;47.056;15.472;2023-06-22T14:34:00;42.63;;;38.83;;
3211;SDS011;1618;47.056;15.472;2023-06-22T14:36:29;43.10;;;39.30;;
3211;SDS011;1618;47.056;15.472;2023-06-22T14:38:56;42.50;;;38.80;;
3211;SDS011;1618;47.056;15.472;2023-06-22T14:41:24;41.87;;;37.97;;
3211;SDS011;1618;47.056;15.472;2023-06-22T14:43:51;41.63;;;37.90;;
3211;SDS011;1618;47.056;15.472;2023-06-22T14:46:19;41.10;;;37.50;;
3211;SDS011;1618;47.056;15.472;2023-06-22T14:48:48;41.23;;;37.53;;
3211;SDS011;1618;47.056;15.472;2023-06-22T14:51:15;41.30;;;37.70;;